sensor_id;sensor_type;location;lat;lon;timestamp;pressure;altitude;pressure_sealevel;temperature;humidity
14117;BME280;7137;51.436;6.544;2024-01-07T00:00:04;101205.09;;;2.29;100.00
14117;BME280;7137;51.436;6.544;2024-01-07T00:03:06;101205.94;;;2.26;100.00
14117;BME280;7137;51.436;6.544;2024-01-07T00:06:08;101201.53;;;2.19;100.00
14117;BME280;7137;51.436;6.544;2024-01-07T00:09:11;101205.81;;;2.16;100.00
14117;BME280;7137;51.436;6.544;2024-01-07T00:12:14;101202.44;;;2.23;100.00
14117;BME280;7137;51.436;6.544;2024-01-07T00:15:15;101206.56;;;2.08;100.00
14117;BME280;7137;51.436;6.544;2024-01-07T00:18:17;101215.31;;;2.23;100.00
14117;BME280;7137;51.436;6.544;2024-01-07T00:21:18;101218.72;;;2.20;100.00
14117;BME280;7137;51.436;6.544;2024-01-07T00:24:21;101211.81;;;2.15;100.00
14117;BME280;7137;51.436;6.544;2024-01-07T00:27:25;101213.53;;;2.14;100.00
14117;BME280;7137;51.436;6.544;2024-01-07T00:30:27;101222.13;;;2.16;100.00
14117;BME280;7137;51.436;6.544;2024-01-07T00:33:30;101217.88;;;2.20;100.00
14117;BME280;7137;51.436;6.544;2024-01-07T00:36:31;101222.16;;;2.19;100.00
14117;BME280;7137;51.436;6.544;2024-01-07T00:39:34;101225.69;;;2.26;100.00
14117;BME280;7137;51.436;6.544;2024-01-07T00:42:36;101224.03;;;2.34;100.00
14117;BME280;7137;51.436;6.544;2024-01-07T00:45:37;101229.19;;;2.35;100.00
14117;BME280;7137;51.436;6.544;2024-01-07T00:48:39;101232.59;;;2.30;100.00
14117;BME280;7137;51.436;6.544;2024-01-07T00:51:40;101236.78;;;2.20;100.00
14117;BME280;7137;51.436;6.544;2024-01-07T00:54:43;101236.63;;;2.09;100.00
14117;BME280;7137;51.436;6.544;2024-01-07T00:57:44;101242.78;;;2.19;100.00
14117;BME280;7137;51.436;6.544;2024-01-07T01:00:46;101243.63;;;2.18;100.00
14117;BME280;7137;51.436;6.544;2024-01-07T01:03:47;101247.06;;;2.17;100.00
14117;BME280;7137;51.436;6.544;2024-01-07T01:06:49;101251.50;;;2.30;100.00
14117;BME280;7137;51.436;6.544;2024-01-07T01:09:52;101252.34;;;2.31;100.00
14117;BME280;7137;51.436;6.544;2024-01-07T01:12:53;101255.69;;;2.22;100.00
14117;BME280;7137;51.436;6.544;2024-01-07T01:15:55;101259.22;;;2.30;100.00
14117;BME280;7137;51.436;6.544;2024-01-07T01:18:56;101266.09;;;2.31;100.00
14117;BME280;7137;51.436;6.544;2024-01-07T01:21:58;101269.53;;;2.30;100.00
14117;BME280;7137;51.436;6.544;2024-01-07T01:25:01;101266.97;;;2.30;100.00
14117;BME280;7137;51.436;6.544;2024-01-07T01:28:03;101268.69;;;2.33;100.00
14117;BME280;7137;51.436;6.544;2024-01-07T01:31:05;101266.06;;;2.27;100.00
14117;BME280;7137;51.436;6.544;2024-01-07T01:34:07;101273.72;;;2.21;100.00
14117;BME280;7137;51.436;6.544;2024-01-07T01:37:08;101276.25;;;2.16;100.00
14117;BME280;7137;51.436;6.544;2024-01-07T01:40:12;101281.44;;;2.19;100.00
14117;BME280;7137;51.436;6.544;2024-01-07T01:43:22;101286.63;;;2.24;100.00
14117;BME280;7137;51.436;6.544;2024-01-07T01:46:24;101292.72;;;2.30;100.00
14117;BME280;7137;51.436;6.544;2024-01-07T01:49:25;101291.72;;;2.18;100.00
14117;BME280;7137;51.436;6.544;2024-01-07T01:52:27;101294.28;;;2.16;100.00
14117;BME280;7137;51.436;6.544;2024-01-07T01:55:31;101300.16;;;2.06;100.00
14117;BME280;7137;51.436;6.544;2024-01-07T01:58:32;101305.41;;;2.12;100.00
14117;BME280;7137;51.436;6.544;2024-01-07T02:01:34;101303.78;;;2.20;100.00
14117;BME280;7137;51.436;6.544;2024-01-07T02:04:36;101311.53;;;2.25;100.00
14117;BME280;7137;51.436;6.544;2024-01-07T02:07:38;101313.91;;;2.08;100.00
14117;BME280;7137;51.436;6.544;2024-01-07T02:10:41;101311.41;;;2.13;100.00
14117;BME280;7137;51.436;6.544;2024-01-07T02:13:42;101310.63;;;2.18;100.00
14117;BME280;7137;51.436;6.544;2024-01-07T02:16:44;101317.50;;;2.19;100.00
14117;BME280;7137;51.436;6.544;2024-01-07T02:19:46;101316.63;;;2.19;100.00
14117;BME280;7137;51.436;6.544;2024-01-07T02:22:48;101314.88;;;2.15;100.00
14117;BME280;7137;51.436;6.544;2024-01-07T02:25:51;101318.22;;;2.09;100.00
14117;BME280;7137;51.436;6.544;2024-01-07T02:28:53;101318.13;;;2.00;100.00
14117;BME280;7137;51.436;6.544;2024-01-07T02:31:54;101316.50;;;2.09;100.00
14117;BME280;7137;51.436;6.544;2024-01-07T02:34:56;101319.81;;;1.98;100.00
14117;BME280;7137;51.436;6.544;2024-01-07T02:37:57;101316.47;;;2.06;100.00
14117;BME280;7137;51.436;6.544;2024-01-07T02:41:00;101324.16;;;2.02;100.00
14117;BME280;7137;51.436;6.544;2024-01-07T02:44:02;101327.50;;;1.96;100.00
14117;BME280;7137;51.436;6.544;2024-01-07T02:47:04;101329.19;;;1.94;100.00
14117;BME280;7137;51.436;6.544;2024-01-07T02:50:06;101330.97;;;1.98;100.00
14117;BME280;7137;51.436;6.544;2024-01-07T02:53:08;101331.78;;;1.94;100.00
14117;BME280;7137;51.436;6.544;2024-01-07T02:56:12;101338.66;;;1.97;100.00
14117;BME280;7137;51.436;6.544;2024-01-07T02:59:14;101338.72;;;2.00;100.00
14117;BME280;7137;51.436;6.544;2024-01-07T03:02:15;101340.38;;;1.96;100.00
14117;BME280;7137;51.436;6.544;2024-01-07T03:05:17;101340.44;;;1.99;100.00
14117;BME280;7137;51.436;6.544;2024-01-07T03:08:18;101341.34;;;2.03;100.00
14117;BME280;7137;51.436;6.544;2024-01-07T03:11:21;101346.47;;;2.00;100.00
14117;BME280;7137;51.436;6.544;2024-01-07T03:14:23;101340.28;;;1.87;100.00
14117;BME280;7137;51.436;6.544;2024-01-07T03:17:24;101343.78;;;1.95;100.00
14117;BME280;7137;51.436;6.544;2024-01-07T03:20:26;101349.72;;;1.87;100.00
14117;BME280;7137;51.436;6.544;2024-01-07T03:23:27;101347.97;;;1.84;100.00
14117;BME280;7137;51.436;6.544;2024-01-07T03:26:30;101353.06;;;1.83;100.00
14117;BME280;7137;51.436;6.544;2024-01-07T03:29:32;101362.53;;;1.84;100.00
14117;BME280;7137;51.436;6.544;2024-01-07T03:32:36;101371.94;;;1.82;100.00
14117;BME280;7137;51.436;6.544;2024-01-07T03:35:38;101363.41;;;1.84;100.00
14117;BME280;7137;51.436;6.544;2024-01-07T03:38:40;101370.09;;;1.73;100.00
14117;BME280;7137;51.436;6.544;2024-01-07T03:41:43;101365.16;;;1.87;100.00
14117;BME280;7137;51.436;6.544;2024-01-07T03:44:45;101367.66;;;1.82;100.00
14117;BME280;7137;51.436;6.544;2024-01-07T03:47:46;101378.81;;;1.83;100.00
14117;BME280;7137;51.436;6.544;2024-01-07T03:50:48;101378.72;;;1.76;100.00
14117;BME280;7137;51.436;6.544;2024-01-07T03:53:49;101382.22;;;1.80;100.00
14117;BME280;7137;51.436;6.544;2024-01-07T03:56:52;101388.25;;;1.82;100.00
14117;BME280;7137;51.436;6.544;2024-01-07T03:59:54;101391.56;;;1.72;100.00
14117;BME280;7137;51.436;6.544;2024-01-07T04:02:55;101387.31;;;1.75;100.00
14117;BME280;7137;51.436;6.544;2024-01-07T04:05:57;101385.59;;;1.76;100.00
14117;BME280;7137;51.436;6.544;2024-01-07T04:08:58;101391.41;;;1.63;100.00
14117;BME280;7137;51.436;6.544;2024-01-07T04:12:01;101395.47;;;1.50;100.00
14117;BME280;7137;51.436;6.544;2024-01-07T04:15:04;101391.84;;;1.39;100.00
14117;BME280;7137;51.436;6.544;2024-01-07T04:18:05;101389.59;;;1.57;100.00
14117;BME280;7137;51.436;6.544;2024-01-07T04:21:09;101396.44;;;1.55;100.00
14117;BME280;7137;51.436;6.544;2024-01-07T04:24:10;101399.75;;;1.49;100.00
14117;BME280;7137;51.436;6.544;2024-01-07T04:27:13;101402.28;;;1.46;100.00
14117;BME280;7137;51.436;6.544;2024-01-07T04:30:15;101403.13;;;1.45;100.00
14117;BME280;7137;51.436;6.544;2024-01-07T04:33:16;101417.72;;;1.45;100.00
14117;BME280;7137;51.436;6.544;2024-01-07T04:36:18;101412.59;;;1.48;100.00
14117;BME280;7137;51.436;6.544;2024-01-07T04:39:19;101414.34;;;1.51;100.00
14117;BME280;7137;51.436;6.544;2024-01-07T04:42:22;101409.22;;;1.51;100.00
14117;BME280;7137;51.436;6.544;2024-01-07T04:45:24;101416.28;;;1.62;100.00
14117;BME280;7137;51.436;6.544;2024-01-07T04:48:25;101413.66;;;1.59;100.00
14117;BME280;7137;51.436;6.544;2024-01-07T04:51:27;101414.59;;;1.64;100.00
14117;BME280;7137;51.436;6.544;2024-01-07T04:54:28;101427.41;;;1.60;100.00
14117;BME280;7137;51.436;6.544;2024-01-07T04:57:31;101431.63;;;1.56;100.00
14117;BME280;7137;51.436;6.544;2024-01-07T05:00:32;101434.91;;;1.47;100.00
14117;BME280;7137;51.436;6.544;2024-01-07T05:03:34;101435.69;;;1.43;100.00
14117;BME280;7137;51.436;6.544;2024-01-07T05:06:35;101441.84;;;1.53;100.00
14117;BME280;7137;51.436;6.544;2024-01-07T05:09:37;101438.44;;;1.54;100.00
14117;BME280;7137;51.436;6.544;2024-01-07T05:12:41;101445.25;;;1.52;100.00
14117;BME280;7137;51.436;6.544;2024-01-07T05:15:42;101453.81;;;1.49;100.00
14117;BME280;7137;51.436;6.544;2024-01-07T05:18:44;101454.00;;;1.60;100.00
14117;BME280;7137;51.436;6.544;2024-01-07T05:21:48;101455.66;;;1.57;100.00
14117;BME280;7137;51.436;6.544;2024-01-07T05:24:50;101455.72;;;1.61;100.00
14117;BME280;7137;51.436;6.544;2024-01-07T05:27:53;101465.03;;;1.55;100.00
14117;BME280;7137;51.436;6.544;2024-01-07T05:30:54;101466.56;;;1.42;100.00
14117;BME280;7137;51.436;6.544;2024-01-07T05:33:56;101466.41;;;1.34;100.00
14117;BME280;7137;51.436;6.544;2024-01-07T05:36:57;101471.50;;;1.31;100.00
14117;BME280;7137;51.436;6.544;2024-01-07T05:39:59;101474.91;;;1.30;100.00
14117;BME280;7137;51.436;6.544;2024-01-07T05:43:02;101480.91;;;1.29;100.00
14117;BME280;7137;51.436;6.544;2024-01-07T05:46:03;101486.03;;;1.28;100.00
14117;BME280;7137;51.436;6.544;2024-01-07T05:49:05;101486.94;;;1.31;100.00
14117;BME280;7137;51.436;6.544;2024-01-07T05:52:07;101500.50;;;1.23;100.00
14117;BME280;7137;51.436;6.544;2024-01-07T05:55:08;101498.03;;;1.27;100.00
14117;BME280;7137;51.436;6.544;2024-01-07T05:58:11;101503.22;;;1.30;100.00
14117;BME280;7137;51.436;6.544;2024-01-07T06:01:18;101507.75;;;1.42;100.00
14117;BME280;7137;51.436;6.544;2024-01-07T06:04:20;101507.53;;;1.31;100.00
14117;BME280;7137;51.436;6.544;2024-01-07T06:07:21;101520.44;;;1.34;100.00
14117;BME280;7137;51.436;6.544;2024-01-07T06:10:23;101522.00;;;1.26;100.00
14117;BME280;7137;51.436;6.544;2024-01-07T06:13:26;101531.47;;;1.27;100.00
14117;BME280;7137;51.436;6.544;2024-01-07T06:16:28;101541.84;;;1.32;100.00
14117;BME280;7137;51.436;6.544;2024-01-07T06:19:30;101533.06;;;1.22;100.00
14117;BME280;7137;51.436;6.544;2024-01-07T06:22:32;101532.94;;;1.14;100.00
14117;BME280;7137;51.436;6.544;2024-01-07T06:25:34;101537.00;;;1.05;100.00
14117;BME280;7137;51.436;6.544;2024-01-07T06:28:36;101541.31;;;1.06;100.00
14117;BME280;7137;51.436;6.544;2024-01-07T06:31:42;101544.63;;;0.99;100.00
14117;BME280;7137;51.436;6.544;2024-01-07T06:34:46;101546.38;;;1.01;100.00
14117;BME280;7137;51.436;6.544;2024-01-07T06:37:49;101551.44;;;0.98;100.00
14117;BME280;7137;51.436;6.544;2024-01-07T06:40:50;101562.53;;;0.96;100.00
14117;BME280;7137;51.436;6.544;2024-01-07T06:43:55;101554.34;;;1.13;100.00
14117;BME280;7137;51.436;6.544;2024-01-07T06:46:58;101562.88;;;1.12;100.00
14117;BME280;7137;51.436;6.544;2024-01-07T06:49:59;101571.38;;;1.08;100.00
14117;BME280;7137;51.436;6.544;2024-01-07T06:53:02;101575.69;;;1.09;100.00
14117;BME280;7137;51.436;6.544;2024-01-07T06:56:04;101580.09;;;1.13;100.00
14117;BME280;7137;51.436;6.544;2024-01-07T06:59:07;101585.03;;;1.04;100.00
14117;BME280;7137;51.436;6.544;2024-01-07T07:02:08;101592.44;;;0.91;100.00
14117;BME280;7137;51.436;6.544;2024-01-07T07:05:10;101595.00;;;0.91;100.00
14117;BME280;7137;51.436;6.544;2024-01-07T07:08:12;101598.72;;;1.03;100.00
14117;BME280;7137;51.436;6.544;2024-01-07T07:11:13;101601.13;;;0.97;100.00
14117;BME280;7137;51.436;6.544;2024-01-07T07:14:16;101599.44;;;0.98;100.00
14117;BME280;7137;51.436;6.544;2024-01-07T07:17:18;101607.13;;;0.96;100.00
14117;BME280;7137;51.436;6.544;2024-01-07T07:20:19;101605.38;;;0.95;100.00
14117;BME280;7137;51.436;6.544;2024-01-07T07:23:21;101618.50;;;1.06;100.00
14117;BME280;7137;51.436;6.544;2024-01-07T07:26:22;101626.97;;;1.02;100.00
14117;BME280;7137;51.436;6.544;2024-01-07T07:29:25;101632.84;;;0.96;100.00
14117;BME280;7137;51.436;6.544;2024-01-07T07:32:27;101638.78;;;0.94;100.00
14117;BME280;7137;51.436;6.544;2024-01-07T07:35:28;101646.50;;;0.94;100.00
14117;BME280;7137;51.436;6.544;2024-01-07T07:38:30;101657.78;;;0.99;100.00
14117;BME280;7137;51.436;6.544;2024-01-07T07:41:32;101667.97;;;0.96;100.00
14117;BME280;7137;51.436;6.544;2024-01-07T07:44:35;101665.28;;;0.89;100.00
14117;BME280;7137;51.436;6.544;2024-01-07T07:47:37;101675.69;;;0.96;100.00
14117;BME280;7137;51.436;6.544;2024-01-07T07:50:40;101677.47;;;0.98;100.00
14117;BME280;7137;51.436;6.544;2024-01-07T07:53:42;101687.69;;;0.95;100.00
14117;BME280;7137;51.436;6.544;2024-01-07T07:56:43;101693.72;;;0.97;100.00
14117;BME280;7137;51.436;6.544;2024-01-07T07:59:46;101690.44;;;1.03;100.00
14117;BME280;7137;51.436;6.544;2024-01-07T08:02:48;101695.53;;;1.00;100.00
14117;BME280;7137;51.436;6.544;2024-01-07T08:05:50;101711.13;;;1.07;100.00
14117;BME280;7137;51.436;6.544;2024-01-07T08:08:51;101716.28;;;1.09;100.00
14117;BME280;7137;51.436;6.544;2024-01-07T08:11:53;101723.84;;;1.01;100.00
14117;BME280;7137;51.436;6.544;2024-01-07T08:14:55;101724.84;;;1.08;100.00
14117;BME280;7137;51.436;6.544;2024-01-07T08:17:57;101718.69;;;1.00;100.00
14117;BME280;7137;51.436;6.544;2024-01-07T08:20:59;101725.47;;;0.98;100.00
14117;BME280;7137;51.436;6.544;2024-01-07T08:24:00;101738.25;;;0.95;100.00
14117;BME280;7137;51.436;6.544;2024-01-07T08:27:04;101739.28;;;1.01;100.00
14117;BME280;7137;51.436;6.544;2024-01-07T08:30:08;101741.09;;;1.05;100.00
14117;BME280;7137;51.436;6.544;2024-01-07T08:33:10;101742.78;;;1.05;100.00
14117;BME280;7137;51.436;6.544;2024-01-07T08:36:11;101751.06;;;0.93;100.00
14117;BME280;7137;51.436;6.544;2024-01-07T08:39:14;101746.66;;;0.87;100.00
14117;BME280;7137;51.436;6.544;2024-01-07T08:42:16;101756.31;;;0.98;100.00
14117;BME280;7137;51.436;6.544;2024-01-07T08:45:19;101751.25;;;0.99;100.00
14117;BME280;7137;51.436;6.544;2024-01-07T08:48:20;101751.38;;;1.05;100.00
14117;BME280;7137;51.436;6.544;2024-01-07T08:51:22;101758.75;;;0.92;100.00
14117;BME280;7137;51.436;6.544;2024-01-07T08:54:23;101762.41;;;1.00;100.00
14117;BME280;7137;51.436;6.544;2024-01-07T08:57:25;101764.91;;;0.98;100.00
14117;BME280;7137;51.436;6.544;2024-01-07T09:00:28;101755.41;;;0.96;100.00
14117;BME280;7137;51.436;6.544;2024-01-07T09:03:31;101767.47;;;0.98;100.00
14117;BME280;7137;51.436;6.544;2024-01-07T09:06:33;101767.41;;;0.95;100.00
14117;BME280;7137;51.436;6.544;2024-01-07T09:09:34;101775.19;;;0.98;100.00
14117;BME280;7137;51.436;6.544;2024-01-07T09:12:36;101775.50;;;1.10;100.00
14117;BME280;7137;51.436;6.544;2024-01-07T09:15:40;101782.19;;;1.02;100.00
14117;BME280;7137;51.436;6.544;2024-01-07T09:18:41;101787.38;;;1.05;100.00
14117;BME280;7137;51.436;6.544;2024-01-07T09:21:44;101785.63;;;1.03;100.00
14117;BME280;7137;51.436;6.544;2024-01-07T09:24:45;101789.13;;;1.06;100.00
14117;BME280;7137;51.436;6.544;2024-01-07T09:27:47;101799.13;;;0.96;100.00
14117;BME280;7137;51.436;6.544;2024-01-07T09:30:50;101806.75;;;0.91;100.00
14117;BME280;7137;51.436;6.544;2024-01-07T09:33:51;101815.22;;;0.87;100.00
14117;BME280;7137;51.436;6.544;2024-01-07T09:36:53;101808.28;;;0.84;99.67
14117;BME280;7137;51.436;6.544;2024-01-07T09:39:54;101816.78;;;0.82;99.34
14117;BME280;7137;51.436;6.544;2024-01-07T09:42:56;101819.34;;;0.82;99.30
14117;BME280;7137;51.436;6.544;2024-01-07T09:46:01;101826.16;;;0.80;99.16
14117;BME280;7137;51.436;6.544;2024-01-07T09:49:03;101822.03;;;0.85;98.36
14117;BME280;7137;51.436;6.544;2024-01-07T09:52:05;101826.38;;;0.87;99.09
14117;BME280;7137;51.436;6.544;2024-01-07T09:55:09;101828.59;;;0.74;98.27
14117;BME280;7137;51.436;6.544;2024-01-07T09:58:11;101839.59;;;0.70;98.07
14117;BME280;7137;51.436;6.544;2024-01-07T10:01:14;101840.91;;;0.85;97.66
14117;BME280;7137;51.436;6.544;2024-01-07T10:04:16;101842.72;;;0.89;96.78
14117;BME280;7137;51.436;6.544;2024-01-07T10:07:18;101843.72;;;0.96;96.61
14117;BME280;7137;51.436;6.544;2024-01-07T10:10:20;101853.63;;;0.81;95.45
14117;BME280;7137;51.436;6.544;2024-01-07T10:13:22;101851.91;;;0.81;95.75
14117;BME280;7137;51.436;6.544;2024-01-07T10:16:25;101853.84;;;0.88;95.44
14117;BME280;7137;51.436;6.544;2024-01-07T10:19:26;101847.84;;;0.89;95.96
14117;BME280;7137;51.436;6.544;2024-01-07T10:22:28;101860.81;;;0.94;96.61
14117;BME280;7137;51.436;6.544;2024-01-07T10:25:30;101852.25;;;0.94;97.70
14117;BME280;7137;51.436;6.544;2024-01-07T10:28:32;101860.81;;;0.94;97.54
14117;BME280;7137;51.436;6.544;2024-01-07T10:31:38;101860.91;;;0.97;97.62
14117;BME280;7137;51.436;6.544;2024-01-07T10:34:40;101863.09;;;0.83;96.64
14117;BME280;7137;51.436;6.544;2024-01-07T10:37:43;101868.31;;;0.85;96.14
14117;BME280;7137;51.436;6.544;2024-01-07T10:40:47;101865.78;;;0.86;95.37
14117;BME280;7137;51.436;6.544;2024-01-07T10:43:51;101868.19;;;0.80;95.34
14117;BME280;7137;51.436;6.544;2024-01-07T10:46:54;101860.16;;;0.70;94.18
14117;BME280;7137;51.436;6.544;2024-01-07T10:49:57;101866.44;;;0.79;94.68
14117;BME280;7137;51.436;6.544;2024-01-07T10:53:03;101873.47;;;0.85;94.00
14117;BME280;7137;51.436;6.544;2024-01-07T10:56:08;101867.53;;;0.87;93.80
14117;BME280;7137;51.436;6.544;2024-01-07T10:59:12;101876.28;;;0.96;94.41
14117;BME280;7137;51.436;6.544;2024-01-07T11:02:16;101870.81;;;0.83;93.91
14117;BME280;7137;51.436;6.544;2024-01-07T11:05:25;101873.34;;;0.82;94.74
14117;BME280;7137;51.436;6.544;2024-01-07T11:08:34;101883.25;;;0.68;93.99
14117;BME280;7137;51.436;6.544;2024-01-07T11:11:38;101883.38;;;0.71;94.45
14117;BME280;7137;51.436;6.544;2024-01-07T11:14:42;101893.53;;;0.68;93.71
14117;BME280;7137;51.436;6.544;2024-01-07T11:17:46;101889.31;;;0.70;92.75
14117;BME280;7137;51.436;6.544;2024-01-07T11:20:48;101893.47;;;0.65;91.89
14117;BME280;7137;51.436;6.544;2024-01-07T11:23:50;101883.44;;;0.74;92.19
14117;BME280;7137;51.436;6.544;2024-01-07T11:26:53;101891.53;;;0.88;90.90
14117;BME280;7137;51.436;6.544;2024-01-07T11:29:55;101889.00;;;0.89;91.26
14117;BME280;7137;51.436;6.544;2024-01-07T11:32:59;101892.19;;;0.81;90.36
14117;BME280;7137;51.436;6.544;2024-01-07T11:36:01;101890.91;;;0.97;90.73
14117;BME280;7137;51.436;6.544;2024-01-07T11:39:04;101901.94;;;0.93;89.67
14117;BME280;7137;51.436;6.544;2024-01-07T11:42:08;101898.38;;;0.87;89.33
14117;BME280;7137;51.436;6.544;2024-01-07T11:45:10;101909.16;;;1.06;88.23
14117;BME280;7137;51.436;6.544;2024-01-07T11:48:13;101903.06;;;1.02;87.79
14117;BME280;7137;51.436;6.544;2024-01-07T11:51:16;101909.94;;;1.03;86.80
14117;BME280;7137;51.436;6.544;2024-01-07T11:54:18;101912.78;;;0.82;86.59
14117;BME280;7137;51.436;6.544;2024-01-07T11:57:19;101911.31;;;0.91;86.30
14117;BME280;7137;51.436;6.544;2024-01-07T12:00:21;101916.72;;;0.70;85.38
14117;BME280;7137;51.436;6.544;2024-01-07T12:03:24;101915.72;;;0.65;84.83
14117;BME280;7137;51.436;6.544;2024-01-07T12:06:26;101919.56;;;0.79;85.04
14117;BME280;7137;51.436;6.544;2024-01-07T12:09:28;101919.28;;;0.70;83.47
14117;BME280;7137;51.436;6.544;2024-01-07T12:12:29;101932.06;;;0.67;83.93
14117;BME280;7137;51.436;6.544;2024-01-07T12:15:31;101921.78;;;0.67;83.56
14117;BME280;7137;51.436;6.544;2024-01-07T12:18:36;101935.78;;;0.76;83.78
14117;BME280;7137;51.436;6.544;2024-01-07T12:21:38;101936.91;;;0.86;83.21
14117;BME280;7137;51.436;6.544;2024-01-07T12:24:40;101937.22;;;0.67;82.50
14117;BME280;7137;51.436;6.544;2024-01-07T12:27:41;101935.56;;;0.69;82.29
14117;BME280;7137;51.436;6.544;2024-01-07T12:30:43;101945.84;;;0.69;81.42
14117;BME280;7137;51.436;6.544;2024-01-07T12:33:47;101939.66;;;0.62;82.17
14117;BME280;7137;51.436;6.544;2024-01-07T12:36:49;101939.69;;;0.64;81.78
14117;BME280;7137;51.436;6.544;2024-01-07T12:39:51;101947.84;;;0.79;81.64
14117;BME280;7137;51.436;6.544;2024-01-07T12:42:53;101945.50;;;0.86;81.27
14117;BME280;7137;51.436;6.544;2024-01-07T12:45:54;101955.78;;;0.86;81.84
14117;BME280;7137;51.436;6.544;2024-01-07T12:48:58;101953.69;;;0.73;82.63
14117;BME280;7137;51.436;6.544;2024-01-07T12:52:00;101965.50;;;0.67;84.25
14117;BME280;7137;51.436;6.544;2024-01-07T12:55:01;101967.50;;;0.47;84.00
14117;BME280;7137;51.436;6.544;2024-01-07T12:58:04;101962.56;;;0.54;84.44
14117;BME280;7137;51.436;6.544;2024-01-07T13:01:06;101961.16;;;0.36;84.60
14117;BME280;7137;51.436;6.544;2024-01-07T13:04:09;101970.31;;;0.27;85.30
14117;BME280;7137;51.436;6.544;2024-01-07T13:07:10;101976.56;;;0.36;85.68
14117;BME280;7137;51.436;6.544;2024-01-07T13:10:12;101979.88;;;0.32;85.66
14117;BME280;7137;51.436;6.544;2024-01-07T13:13:13;101985.00;;;0.32;85.34
14117;BME280;7137;51.436;6.544;2024-01-07T13:16:15;101986.59;;;0.28;85.12
14117;BME280;7137;51.436;6.544;2024-01-07T13:19:19;101991.38;;;0.16;84.89
14117;BME280;7137;51.436;6.544;2024-01-07T13:22:21;101992.41;;;0.22;85.38
14117;BME280;7137;51.436;6.544;2024-01-07T13:25:24;101997.69;;;0.27;85.02
14117;BME280;7137;51.436;6.544;2024-01-07T13:28:26;102004.16;;;0.14;84.18
14117;BME280;7137;51.436;6.544;2024-01-07T13:31:27;102009.09;;;0.08;83.83
14117;BME280;7137;51.436;6.544;2024-01-07T13:34:30;102012.47;;;0.07;83.64
14117;BME280;7137;51.436;6.544;2024-01-07T13:37:33;102010.94;;;0.12;82.16
14117;BME280;7137;51.436;6.544;2024-01-07T13:40:35;102009.41;;;0.17;82.11
14117;BME280;7137;51.436;6.544;2024-01-07T13:43:37;102011.75;;;0.11;80.15
14117;BME280;7137;51.436;6.544;2024-01-07T13:46:40;102006.44;;;0.05;79.42
14117;BME280;7137;51.436;6.544;2024-01-07T13:49:43;102010.44;;;0.24;78.86
14117;BME280;7137;51.436;6.544;2024-01-07T13:52:45;102016.75;;;0.07;77.46
14117;BME280;7137;51.436;6.544;2024-01-07T13:55:46;102022.16;;;0.14;77.11
14117;BME280;7137;51.436;6.544;2024-01-07T13:58:50;102026.69;;;0.23;77.20
14117;BME280;7137;51.436;6.544;2024-01-07T14:01:52;102029.59;;;0.34;76.39
14117;BME280;7137;51.436;6.544;2024-01-07T14:04:54;102029.25;;;0.23;74.66
14117;BME280;7137;51.436;6.544;2024-01-07T14:07:56;102026.81;;;0.27;75.62
14117;BME280;7137;51.436;6.544;2024-01-07T14:10:57;102035.88;;;0.15;75.16
14117;BME280;7137;51.436;6.544;2024-01-07T14:13:59;102043.94;;;0.00;75.34
14117;BME280;7137;51.436;6.544;2024-01-07T14:17:01;102048.63;;;0.13;75.20
14117;BME280;7137;51.436;6.544;2024-01-07T14:20:06;102039.88;;;0.07;75.38
14117;BME280;7137;51.436;6.544;2024-01-07T14:23:08;102052.03;;;0.12;75.80
14117;BME280;7137;51.436;6.544;2024-01-07T14:26:10;102064.16;;;0.16;75.97
14117;BME280;7137;51.436;6.544;2024-01-07T14:29:11;102062.19;;;0.09;75.72
14117;BME280;7137;51.436;6.544;2024-01-07T14:32:13;102068.94;;;0.06;74.98
14117;BME280;7137;51.436;6.544;2024-01-07T14:35:16;102069.63;;;0.00;75.88
14117;BME280;7137;51.436;6.544;2024-01-07T14:38:18;102064.69;;;0.06;75.50
14117;BME280;7137;51.436;6.544;2024-01-07T14:41:20;102069.19;;;0.13;75.55
14117;BME280;7137;51.436;6.544;2024-01-07T14:44:21;102066.81;;;0.19;75.34
14117;BME280;7137;51.436;6.544;2024-01-07T14:47:23;102084.75;;;0.18;75.78
14117;BME280;7137;51.436;6.544;2024-01-07T14:50:26;102087.63;;;0.27;75.69
14117;BME280;7137;51.436;6.544;2024-01-07T14:53:27;102099.63;;;0.28;75.81
14117;BME280;7137;51.436;6.544;2024-01-07T14:56:29;102093.53;;;0.24;75.25
14117;BME280;7137;51.436;6.544;2024-01-07T14:59:31;102101.00;;;0.17;75.08
14117;BME280;7137;51.436;6.544;2024-01-07T15:02:32;102102.94;;;0.24;74.64
14117;BME280;7137;51.436;6.544;2024-01-07T15:05:36;102119.31;;;0.27;74.56
14117;BME280;7137;51.436;6.544;2024-01-07T15:08:37;102114.31;;;0.31;74.31
14117;BME280;7137;51.436;6.544;2024-01-07T15:11:39;102120.19;;;0.28;75.22
14117;BME280;7137;51.436;6.544;2024-01-07T15:14:42;102130.63;;;0.33;75.60
14117;BME280;7137;51.436;6.544;2024-01-07T15:17:43;102117.47;;;0.23;75.41
14117;BME280;7137;51.436;6.544;2024-01-07T15:20:46;102126.94;;;0.24;75.02
14117;BME280;7137;51.436;6.544;2024-01-07T15:23:48;102133.03;;;0.28;75.47
14117;BME280;7137;51.436;6.544;2024-01-07T15:26:50;102137.25;;;0.26;75.64
14117;BME280;7137;51.436;6.544;2024-01-07T15:29:52;102135.59;;;0.28;75.97
14117;BME280;7137;51.436;6.544;2024-01-07T15:32:53;102144.97;;;0.26;75.85
14117;BME280;7137;51.436;6.544;2024-01-07T15:35:56;102147.56;;;0.27;76.00
14117;BME280;7137;51.436;6.544;2024-01-07T15:38:58;102149.22;;;0.25;75.06
14117;BME280;7137;51.436;6.544;2024-01-07T15:42:00;102154.59;;;0.32;73.73
14117;BME280;7137;51.436;6.544;2024-01-07T15:45:02;102152.13;;;0.35;74.14
14117;BME280;7137;51.436;6.544;2024-01-07T15:48:04;102166.72;;;0.36;75.31
14117;BME280;7137;51.436;6.544;2024-01-07T15:51:07;102180.34;;;0.33;74.71
14117;BME280;7137;51.436;6.544;2024-01-07T15:54:09;102164.97;;;0.35;74.54
14117;BME280;7137;51.436;6.544;2024-01-07T15:57:10;102174.41;;;0.36;74.46
14117;BME280;7137;51.436;6.544;2024-01-07T16:00:13;102179.75;;;0.42;74.57
14117;BME280;7137;51.436;6.544;2024-01-07T16:03:15;102175.78;;;0.51;73.87
14117;BME280;7137;51.436;6.544;2024-01-07T16:06:18;102176.44;;;0.44;73.70
14117;BME280;7137;51.436;6.544;2024-01-07T16:09:20;102191.22;;;0.51;75.15